createdAt,value
2023-05-07T00:00:34.598Z,12.20
2023-05-07T00:03:22.694Z,11.20
2023-05-07T00:08:22.553Z,10.90
2023-05-07T00:10:53.220Z,10.90
2023-05-07T00:13:24.311Z,11.20
2023-05-07T00:15:55.078Z,11.40
2023-05-07T00:18:25.856Z,9.90
2023-05-07T00:20:56.818Z,10.10
2023-05-07T00:25:56.918Z,10.00
2023-05-07T00:30:56.608Z,10.70
2023-05-07T00:33:27.272Z,10.60
2023-05-07T00:35:57.862Z,9.60
2023-05-07T00:38:28.513Z,10.20
2023-05-07T00:40:59.145Z,10.50
2023-05-07T00:43:29.873Z,10.40
2023-05-07T00:46:00.720Z,10.10
2023-05-07T00:48:31.894Z,10.50
2023-05-07T00:51:02.563Z,10.00
2023-05-07T00:53:33.282Z,10.10
2023-05-07T00:56:04.087Z,10.20
2023-05-07T00:58:35.766Z,10.10
2023-05-07T01:01:06.432Z,10.50
2023-05-07T01:03:37.278Z,10.10
2023-05-07T01:06:11.053Z,10.20
2023-05-07T01:08:42.677Z,9.70
2023-05-07T01:13:43.962Z,9.50
2023-05-07T01:16:14.637Z,9.60
2023-05-07T01:18:45.402Z,10.20
2023-05-07T01:21:18.663Z,10.80
2023-05-07T01:23:49.984Z,10.50
2023-05-07T01:26:21.373Z,10.00
2023-05-07T01:28:52.048Z,9.60
2023-05-07T01:31:24.786Z,9.90
2023-05-07T01:33:58.028Z,10.00
2023-05-07T01:36:30.078Z,10.80
2023-05-07T01:39:02.595Z,10.70
2023-05-07T01:41:33.567Z,10.20
2023-05-07T01:44:06.781Z,11.20
2023-05-07T01:46:37.952Z,10.10
2023-05-07T01:51:38.099Z,9.50
2023-05-07T01:56:38.341Z,9.20
2023-05-07T01:59:08.998Z,8.90
2023-05-07T02:01:39.619Z,8.70
2023-05-07T02:04:10.521Z,8.60
2023-05-07T02:06:41.149Z,8.80
2023-05-07T02:09:11.806Z,8.10
2023-05-07T02:11:42.441Z,8.90
2023-05-07T02:14:13.044Z,9.90
2023-05-07T02:16:43.639Z,9.50
2023-05-07T02:19:14.355Z,9.30
2023-05-07T02:21:44.942Z,8.70
2023-05-07T02:24:15.566Z,8.50
2023-05-07T02:26:46.161Z,9.80
2023-05-07T02:29:16.877Z,10.60
2023-05-07T02:31:47.652Z,9.10
2023-05-07T02:34:18.392Z,9.40
2023-05-07T02:36:49.043Z,10.00
2023-05-07T02:39:19.691Z,9.80
2023-05-07T02:41:53.207Z,10.00
2023-05-07T02:44:23.909Z,10.20
2023-05-07T02:46:54.542Z,10.00
2023-05-07T02:49:25.281Z,10.50
2023-05-07T02:51:55.906Z,10.20
2023-05-07T02:54:26.621Z,10.40
2023-05-07T02:56:57.252Z,9.80
2023-05-07T02:59:27.858Z,9.80
2023-05-07T03:01:58.537Z,9.10
2023-05-07T03:04:29.262Z,9.60
2023-05-07T03:07:02.189Z,9.40
2023-05-07T03:09:32.839Z,9.40
2023-05-07T03:12:03.561Z,8.40
2023-05-07T03:14:34.281Z,8.70
2023-05-07T03:17:04.875Z,8.60
2023-05-07T03:19:35.834Z,9.60
2023-05-07T03:22:06.980Z,8.50
2023-05-07T03:24:37.651Z,9.40
2023-05-07T03:27:08.361Z,9.80
2023-05-07T03:29:39.023Z,8.80
2023-05-07T03:32:09.657Z,8.70
2023-05-07T03:34:40.320Z,8.30
2023-05-07T03:37:11.004Z,9.70
2023-05-07T03:39:41.628Z,8.40
2023-05-07T03:42:12.295Z,8.80
2023-05-07T03:44:42.874Z,8.80
2023-05-07T03:47:13.486Z,8.70
2023-05-07T03:49:44.124Z,9.20
2023-05-07T03:52:14.759Z,9.80
2023-05-07T03:54:45.370Z,10.30
2023-05-07T03:57:16.020Z,8.40
2023-05-07T03:59:46.639Z,9.00
2023-05-07T04:02:17.287Z,8.80
2023-05-07T04:04:49.271Z,8.80
2023-05-07T04:07:19.986Z,9.20
2023-05-07T04:09:50.641Z,9.30
2023-05-07T04:12:21.351Z,10.00
2023-05-07T04:14:51.974Z,10.80
2023-05-07T04:17:22.617Z,12.70
2023-05-07T04:19:53.397Z,11.50
2023-05-07T04:22:24.050Z,10.50
2023-05-07T04:24:54.692Z,10.20
2023-05-07T04:27:25.298Z,8.90
2023-05-07T04:29:56.100Z,8.40
2023-05-07T04:32:26.825Z,9.30
2023-05-07T04:34:57.561Z,9.60
2023-05-07T04:37:28.254Z,9.90
2023-05-07T04:39:59.343Z,8.40
2023-05-07T04:42:29.884Z,7.50
2023-05-07T04:45:00.524Z,7.00
2023-05-07T04:50:00.718Z,6.20
2023-05-07T04:52:31.379Z,6.40
2023-05-07T04:57:32.222Z,5.70
2023-05-07T05:00:12.993Z,7.10
2023-05-07T05:02:43.894Z,7.10
2023-05-07T05:05:14.603Z,6.70
2023-05-07T05:10:14.354Z,6.80
2023-05-07T05:12:45.086Z,6.20
2023-05-07T05:15:15.732Z,6.40
2023-05-07T05:17:46.423Z,6.80
2023-05-07T05:20:17.241Z,6.60
2023-05-07T05:22:47.903Z,6.70
2023-05-07T05:25:18.717Z,6.20
2023-05-07T05:27:49.356Z,7.00
2023-05-07T05:32:49.069Z,7.10
2023-05-07T05:35:19.819Z,7.00
2023-05-07T05:40:19.847Z,6.90
2023-05-07T05:45:19.665Z,7.20
2023-05-07T05:47:50.434Z,7.70
2023-05-07T05:50:21.252Z,7.10
2023-05-07T05:52:51.919Z,7.50
2023-05-07T05:55:23.177Z,7.50
2023-05-07T05:58:00.135Z,6.50
2023-05-07T06:00:30.971Z,6.50
2023-05-07T06:03:01.720Z,5.40
2023-05-07T06:05:32.509Z,6.30
2023-05-07T06:08:03.331Z,6.10
2023-05-07T06:10:33.958Z,6.10
2023-05-07T06:13:04.633Z,5.80
2023-05-07T06:15:35.330Z,5.90
2023-05-07T06:18:06.162Z,6.20
2023-05-07T06:20:36.994Z,7.00
2023-05-07T06:23:08.048Z,5.50
2023-05-07T06:28:08.668Z,5.40
2023-05-07T06:30:39.671Z,5.00
2023-05-07T06:35:40.713Z,3.70
2023-05-07T06:38:11.310Z,3.70
2023-05-07T06:40:41.921Z,3.40
2023-05-07T06:43:12.587Z,3.50
2023-05-07T06:45:43.256Z,3.70
2023-05-07T06:48:14.508Z,4.10
2023-05-07T06:50:45.706Z,3.80
2023-05-07T06:53:16.362Z,3.40
2023-05-07T06:55:46.961Z,3.40
2023-05-07T06:58:17.747Z,4.00
2023-05-07T07:03:17.718Z,3.40
2023-05-07T07:06:33.758Z,3.90
2023-05-07T07:09:07.815Z,3.60
2023-05-07T07:11:42.257Z,4.10
2023-05-07T07:14:12.931Z,5.30
2023-05-07T07:16:53.223Z,4.10
2023-05-07T07:19:23.971Z,4.50
2023-05-07T07:21:54.588Z,3.40
2023-05-07T07:24:25.326Z,3.70
2023-05-07T07:26:55.994Z,3.30
2023-05-07T07:29:26.932Z,3.60
2023-05-07T07:34:27.123Z,3.30
2023-05-07T07:36:57.765Z,2.80
2023-05-07T07:39:28.554Z,3.10
2023-05-07T07:41:59.177Z,2.90
2023-05-07T07:44:30.258Z,2.70
2023-05-07T07:47:00.931Z,2.70
2023-05-07T07:49:31.655Z,2.70
2023-05-07T07:52:02.335Z,2.40
2023-05-07T07:54:33.325Z,2.70
2023-05-07T07:57:04.055Z,2.30
2023-05-07T07:59:34.647Z,2.20
2023-05-07T08:04:34.877Z,2.40
2023-05-07T08:07:05.563Z,2.00
2023-05-07T08:09:39.015Z,2.40
2023-05-07T08:12:10.156Z,2.10
2023-05-07T08:14:41.061Z,2.70
2023-05-07T08:19:41.116Z,2.90
2023-05-07T08:24:41.731Z,2.60
2023-05-07T08:27:12.326Z,2.60
2023-05-07T08:29:42.957Z,2.00
2023-05-07T08:32:13.548Z,3.10
2023-05-07T08:34:44.345Z,2.50
2023-05-07T08:39:44.097Z,2.40
2023-05-07T08:42:16.640Z,2.40
2023-05-07T08:44:48.075Z,2.40
2023-05-07T08:47:18.784Z,2.30
2023-05-07T08:49:49.855Z,2.10
2023-05-07T08:52:20.522Z,1.60
2023-05-07T08:54:51.210Z,1.70
2023-05-07T08:57:21.868Z,1.40
2023-05-07T08:59:52.524Z,1.70
2023-05-07T09:02:23.281Z,1.60
2023-05-07T09:04:54.266Z,1.80
2023-05-07T09:07:25.813Z,1.90
2023-05-07T09:09:58.750Z,1.90
2023-05-07T09:12:29.365Z,1.90
2023-05-07T09:15:01.241Z,2.40
2023-05-07T09:17:31.830Z,2.00
2023-05-07T09:20:10.647Z,2.00
2023-05-07T09:22:41.878Z,1.80
2023-05-07T09:25:13.070Z,1.90
2023-05-07T09:27:44.612Z,1.80
2023-05-07T09:30:15.821Z,2.10
2023-05-07T09:32:46.442Z,1.60
2023-05-07T09:35:19.083Z,1.80
2023-05-07T09:37:49.774Z,1.50
2023-05-07T09:40:27.885Z,1.70
2023-05-07T09:43:09.445Z,1.70
2023-05-07T09:45:40.197Z,2.30
2023-05-07T09:48:11.605Z,2.10
2023-05-07T09:50:52.536Z,1.80
2023-05-07T09:53:24.432Z,2.20
2023-05-07T09:55:56.264Z,1.80
2023-05-07T09:58:28.559Z,1.70
2023-05-07T10:00:59.997Z,1.80
2023-05-07T10:03:34.716Z,2.10
2023-05-07T10:06:06.638Z,2.40
2023-05-07T10:08:38.633Z,1.70
2023-05-07T10:11:10.314Z,2.80
2023-05-07T10:13:41.144Z,1.90
2023-05-07T10:18:41.498Z,2.10
2023-05-07T10:21:17.110Z,2.50
2023-05-07T10:23:52.334Z,2.20
2023-05-07T10:26:26.324Z,2.20
2023-05-07T10:29:00.617Z,1.90
2023-05-07T10:31:47.562Z,2.70
2023-05-07T10:34:22.743Z,1.70
2023-05-07T10:36:55.519Z,1.40
2023-05-07T10:39:26.491Z,1.50
2023-05-07T10:44:30.211Z,1.80
2023-05-07T10:47:09.502Z,2.00
2023-05-07T10:50:18.123Z,1.80
2023-05-07T10:53:24.847Z,1.90
2023-05-07T10:56:31.508Z,2.10
2023-05-07T10:59:32.717Z,2.00
2023-05-07T11:02:06.323Z,2.20
2023-05-07T11:04:37.198Z,2.00
2023-05-07T11:07:27.375Z,1.70
2023-05-07T11:09:59.513Z,2.00
2023-05-07T11:12:54.358Z,2.20
2023-05-07T11:15:39.905Z,2.50
2023-05-07T11:18:10.978Z,1.80
2023-05-07T11:20:53.435Z,2.10
2023-05-07T11:24:09.845Z,2.20
2023-05-07T11:26:48.899Z,3.00
2023-05-07T11:29:22.531Z,2.10
2023-05-07T11:31:55.298Z,1.80
2023-05-07T11:34:27.330Z,1.60
2023-05-07T11:36:59.401Z,1.90
2023-05-07T11:39:32.253Z,2.50
2023-05-07T11:42:03.642Z,2.50
2023-05-07T11:44:50.572Z,1.90
2023-05-07T11:47:21.995Z,2.20
2023-05-07T11:49:54.601Z,2.80
2023-05-07T11:52:26.636Z,2.90
2023-05-07T11:55:00.740Z,2.80
2023-05-07T11:57:33.608Z,2.30
2023-05-07T12:00:07.702Z,1.90
2023-05-07T12:02:38.528Z,2.30
2023-05-07T12:05:12.246Z,1.80
2023-05-07T12:07:43.145Z,2.30
2023-05-07T12:10:15.012Z,2.00
2023-05-07T12:12:48.444Z,1.90
2023-05-07T12:15:25.990Z,1.80
2023-05-07T12:17:56.873Z,1.80
2023-05-07T12:22:57.231Z,2.20
2023-05-07T12:25:30.729Z,2.60
2023-05-07T12:28:02.783Z,2.10
2023-05-07T12:30:37.560Z,2.00
2023-05-07T12:33:08.629Z,2.20
2023-05-07T12:35:41.642Z,2.10
2023-05-07T12:38:13.549Z,2.80
2023-05-07T12:40:46.045Z,2.20
2023-05-07T12:43:20.618Z,2.50
2023-05-07T12:45:54.547Z,2.00
2023-05-07T12:48:25.432Z,1.80
2023-05-07T12:53:27.192Z,2.20
2023-05-07T12:55:59.535Z,2.10
2023-05-07T12:58:32.191Z,2.00
2023-05-07T13:01:05.684Z,2.20
2023-05-07T13:03:38.486Z,2.00
2023-05-07T13:06:11.466Z,1.80
2023-05-07T13:08:43.574Z,2.10
2023-05-07T13:11:14.384Z,2.40
2023-05-07T13:13:44.997Z,1.80
2023-05-07T13:16:15.681Z,2.30
2023-05-07T13:18:46.656Z,1.90
2023-05-07T13:23:09.075Z,2.30
2023-05-07T13:24:44.422Z,1.90
2023-05-07T13:27:15.073Z,2.00
2023-05-07T13:29:48.136Z,1.90
2023-05-07T13:32:18.838Z,1.90
2023-05-07T13:34:49.787Z,2.40
2023-05-07T13:39:49.581Z,1.70
2023-05-07T13:42:20.377Z,1.70
2023-05-07T13:44:52.376Z,1.90
2023-05-07T13:47:24.651Z,1.70
2023-05-07T13:49:55.452Z,1.60
2023-05-07T13:52:26.048Z,2.10
2023-05-07T13:54:56.960Z,2.00
2023-05-07T13:59:59.297Z,1.80
2023-05-07T14:02:30.028Z,2.30
2023-05-07T14:07:29.904Z,2.30
2023-05-07T14:10:28.685Z,1.90
2023-05-07T14:13:20.016Z,2.00
2023-05-07T14:18:19.932Z,2.00
2023-05-07T14:20:50.876Z,1.50
2023-05-07T14:23:21.557Z,1.70
2023-05-07T14:25:52.219Z,2.00
2023-05-07T14:30:52.254Z,1.80
2023-05-07T14:36:13.964Z,2.90
2023-05-07T14:39:11.637Z,2.60
2023-05-07T14:42:12.888Z,3.00
2023-05-07T14:44:41.055Z,2.50
2023-05-07T14:47:11.780Z,2.40
2023-05-07T14:49:42.425Z,2.40
2023-05-07T14:52:13.143Z,2.00
2023-05-07T14:54:43.927Z,2.60
2023-05-07T14:57:16.433Z,2.10
2023-05-07T14:59:47.374Z,2.00
2023-05-07T15:02:21.183Z,2.20
2023-05-07T15:04:52.193Z,2.40
2023-05-07T15:07:22.812Z,2.90
2023-05-07T15:09:56.121Z,2.00
2023-05-07T15:12:26.783Z,2.50
2023-05-07T15:14:57.644Z,2.20
2023-05-07T15:17:30.942Z,2.50
2023-05-07T15:20:04.644Z,3.00
2023-05-07T15:22:36.204Z,3.60
2023-05-07T15:25:10.967Z,2.60
2023-05-07T15:27:41.836Z,2.20
2023-05-07T15:30:16.289Z,3.30
2023-05-07T15:32:49.480Z,3.90
2023-05-07T15:35:20.155Z,3.00
2023-05-07T15:37:50.818Z,2.40
2023-05-07T15:40:24.484Z,1.90
2023-05-07T15:43:12.661Z,2.20
2023-05-07T15:46:03.855Z,2.60
2023-05-07T15:48:36.715Z,2.70
2023-05-07T15:51:07.712Z,2.60
2023-05-07T15:53:38.434Z,2.10
2023-05-07T15:56:09.654Z,2.30
2023-05-07T15:58:40.299Z,2.40
2023-05-07T16:01:11.155Z,2.00
2023-05-07T16:03:42.127Z,2.40
2023-05-07T16:06:13.005Z,2.60
2023-05-07T16:08:43.620Z,2.60
2023-05-07T16:11:14.271Z,2.50
2023-05-07T16:16:14.052Z,2.00
2023-05-07T16:18:44.669Z,2.30
2023-05-07T16:21:15.380Z,2.60
2023-05-07T16:23:46.312Z,2.30
2023-05-07T16:28:46.023Z,2.60
2023-05-07T16:31:16.734Z,2.80
2023-05-07T16:33:47.483Z,2.60
2023-05-07T16:41:01.435Z,2.40
2023-05-07T16:42:36.200Z,2.10
2023-05-07T16:45:10.023Z,2.10
2023-05-07T16:47:40.815Z,2.70
2023-05-07T16:50:13.496Z,2.80
2023-05-07T16:52:44.191Z,2.50
2023-05-07T16:55:15.282Z,2.90
2023-05-07T16:57:46.117Z,3.10
2023-05-07T17:00:18.485Z,2.90
2023-05-07T17:02:49.474Z,3.10
2023-05-07T17:05:20.529Z,2.40
2023-05-07T17:10:21.543Z,2.70
2023-05-07T17:12:52.413Z,3.70
2023-05-07T17:15:23.397Z,3.60
2023-05-07T17:17:54.239Z,2.70
2023-05-07T17:22:54.184Z,3.40
2023-05-07T17:25:25.388Z,3.10
2023-05-07T17:27:56.216Z,3.40
2023-05-07T17:30:27.055Z,3.50
2023-05-07T17:35:37.132Z,4.00
2023-05-07T17:38:27.646Z,4.50
2023-05-07T17:41:04.106Z,4.50
2023-05-07T17:43:34.821Z,3.90
2023-05-07T17:46:09.838Z,3.70
2023-05-07T17:48:40.524Z,3.60
2023-05-07T17:51:11.212Z,3.70
2023-05-07T17:53:42.202Z,2.90
2023-05-07T18:01:18.812Z,3.50
2023-05-07T18:06:18.905Z,3.40
2023-05-07T18:08:49.620Z,3.10
2023-05-07T18:11:20.331Z,3.90
2023-05-07T18:13:51.006Z,3.10
2023-05-07T18:16:21.745Z,3.70
2023-05-07T18:18:52.721Z,3.60
2023-05-07T18:23:52.422Z,3.10
2023-05-07T18:26:23.208Z,3.60
2023-05-07T18:28:53.867Z,3.80
2023-05-07T18:31:27.749Z,3.70
2023-05-07T18:33:58.671Z,4.10
2023-05-07T18:36:29.360Z,4.20
2023-05-07T18:38:59.993Z,4.20
2023-05-07T18:41:30.640Z,4.30
2023-05-07T18:44:01.270Z,4.60
2023-05-07T18:46:31.973Z,5.00
2023-05-07T18:49:02.721Z,4.80
2023-05-07T18:51:33.389Z,4.70
2023-05-07T18:54:04.149Z,4.40
2023-05-07T18:56:35.012Z,4.60
2023-05-07T18:59:05.665Z,5.10
2023-05-07T19:01:36.290Z,5.20
2023-05-07T19:04:07.227Z,5.20
2023-05-07T19:09:06.994Z,5.80
2023-05-07T19:11:37.746Z,6.10
2023-05-07T19:14:08.396Z,7.30
2023-05-07T19:16:39.138Z,8.20
2023-05-07T19:19:10.166Z,9.40
2023-05-07T19:24:10.513Z,10.20
2023-05-07T19:26:41.231Z,10.90
2023-05-07T19:29:18.000Z,14.40
2023-05-07T19:31:49.318Z,13.60
2023-05-07T19:34:20.030Z,12.60
2023-05-07T19:36:50.676Z,12.00
2023-05-07T19:39:21.411Z,12.40
2023-05-07T19:41:54.423Z,11.70
2023-05-07T19:44:25.242Z,10.00
2023-05-07T19:46:55.831Z,11.20
2023-05-07T19:49:26.660Z,13.60
2023-05-07T19:51:57.550Z,12.90
2023-05-07T19:54:28.239Z,13.50
2023-05-07T19:56:58.937Z,14.60
2023-05-07T19:59:29.647Z,15.90
2023-05-07T20:02:00.416Z,16.20
2023-05-07T20:04:31.231Z,16.00
2023-05-07T20:07:01.903Z,15.00
2023-05-07T20:09:32.558Z,14.20
2023-05-07T20:12:03.439Z,14.10
2023-05-07T20:14:34.424Z,13.00
2023-05-07T20:19:34.467Z,13.30
2023-05-07T20:22:05.108Z,13.90
2023-05-07T20:24:39.394Z,14.10
2023-05-07T20:27:10.005Z,13.80
2023-05-07T20:29:40.713Z,15.60
2023-05-07T20:32:22.741Z,15.10
2023-05-07T20:34:53.661Z,13.10
2023-05-07T20:37:24.506Z,12.50
2023-05-07T20:39:56.554Z,12.10
2023-05-07T20:42:30.218Z,11.70
2023-05-07T20:45:03.358Z,12.20
2023-05-07T20:47:34.883Z,13.00
2023-05-07T20:52:34.874Z,10.70
2023-05-07T20:55:06.770Z,10.70
2023-05-07T20:57:37.583Z,10.80
2023-05-07T21:00:10.308Z,10.50
2023-05-07T21:02:41.306Z,11.40
2023-05-07T21:05:12.439Z,11.30
2023-05-07T21:10:14.778Z,12.20
2023-05-07T21:12:45.706Z,10.50
2023-05-07T21:15:16.675Z,10.30
2023-05-07T21:20:17.233Z,9.40
2023-05-07T21:22:47.898Z,10.40
2023-05-07T21:25:19.073Z,10.80
2023-05-07T21:27:50.751Z,9.80
2023-05-07T21:30:21.677Z,8.90
2023-05-07T21:32:52.565Z,9.30
2023-05-07T21:35:23.377Z,9.50
2023-05-07T21:37:54.128Z,9.10
2023-05-07T21:40:24.994Z,9.60
2023-05-07T21:42:55.676Z,9.00
2023-05-07T21:45:28.827Z,8.50
2023-05-07T21:47:59.533Z,9.50
2023-05-07T21:50:30.208Z,8.60
2023-05-07T21:53:01.512Z,8.60
2023-05-07T21:55:39.149Z,8.90
2023-05-07T21:58:09.704Z,8.50
2023-05-07T22:00:44.761Z,9.20
2023-05-07T22:03:15.481Z,9.80
2023-05-07T22:05:48.034Z,9.00
2023-05-07T22:08:20.051Z,8.80
2023-05-07T22:10:50.762Z,8.50
2023-05-07T22:13:21.380Z,8.80
2023-05-07T22:15:57.598Z,9.00
2023-05-07T22:18:29.404Z,8.30
2023-05-07T22:21:00.128Z,9.80
2023-05-07T22:23:30.821Z,9.80
2023-05-07T22:26:01.478Z,9.50
2023-05-07T22:28:32.089Z,9.20
2023-05-07T22:31:02.720Z,9.40
2023-05-07T22:33:33.451Z,10.00
2023-05-07T22:36:05.009Z,11.60
2023-05-07T22:38:38.074Z,11.90
2023-05-07T22:41:08.762Z,12.00
2023-05-07T22:43:39.422Z,11.60
2023-05-07T22:46:10.099Z,12.00
2023-05-07T22:48:40.786Z,12.90
2023-05-07T22:51:15.446Z,13.60
2023-05-07T22:53:48.064Z,13.20
2023-05-07T22:56:18.704Z,12.60
2023-05-07T22:58:49.344Z,15.40
2023-05-07T23:01:20.274Z,17.10
2023-05-07T23:06:20.338Z,16.70
2023-05-07T23:08:51.245Z,17.70
2023-05-07T23:11:24.011Z,18.00
2023-05-07T23:13:54.714Z,17.90
2023-05-07T23:16:25.403Z,18.70
2023-05-07T23:18:56.474Z,18.10
2023-05-07T23:23:56.521Z,21.00
2023-05-07T23:26:29.740Z,21.40
2023-05-07T23:29:00.323Z,21.40
2023-05-07T23:31:31.563Z,20.60
2023-05-07T23:34:02.282Z,20.80
2023-05-07T23:36:33.260Z,19.70
2023-05-07T23:41:32.915Z,17.40
2023-05-07T23:44:03.600Z,16.60
2023-05-07T23:46:34.394Z,16.30
2023-05-07T23:49:05.108Z,17.20
2023-05-07T23:51:35.812Z,17.70
2023-05-07T23:54:06.684Z,17.80
2023-05-07T23:56:37.351Z,16.30
2023-05-07T23:59:08.093Z,17.10
